Time;durP1;ratioP1;P1;durP2;ratioP2;P2;SDS_P1;SDS_P2;PMS_P1;PMS_P2;Temp;Humidity;BMP_temperature;BMP_pressure;BME280_temperature;BME280_humidity;BME280_pressure;Samples;Min_cycle;Max_cycle;Signal;HPM_P1;HPM_P2
2022/03/13 00:00:50;;;;;;;14.07;9.07;;;;;;;10.96;55.19;101440.09;6245818;22;20007;-60
2022/03/13 00:03:19;;;;;;;12.70;8.32;;;;;;;10.92;55.34;101447.91;6245743;22;20004;-60
2022/03/13 00:05:46;;;;;;;14.18;7.95;;;;;;;10.91;55.63;101447.00;6245784;22;20004;-60
2022/03/13 00:08:29;;;;;;;14.43;7.95;;;;;;;10.91;55.86;101443.47;6245874;22;20000;-61
2022/03/13 00:11:25;;;;;;;13.02;8.02;;;;;;;10.92;55.77;101447.91;6246094;22;20083;-61
2022/03/13 00:13:53;;;;;;;14.18;7.97;;;;;;;10.91;55.83;101443.47;6244253;22;20015;-60
2022/03/13 00:16:26;;;;;;;12.32;8.10;;;;;;;10.88;56.16;101448.72;6246012;22;20019;-61
2022/03/13 00:18:56;;;;;;;12.93;8.13;;;;;;;10.84;56.50;101437.19;6245995;22;20004;-60
2022/03/13 00:21:22;;;;;;;12.57;7.60;;;;;;;10.85;56.60;101444.25;6245406;22;20042;-61
2022/03/13 00:23:49;;;;;;;12.82;8.10;;;;;;;10.83;56.17;101434.50;6245749;22;20151;-61
2022/03/13 00:26:16;;;;;;;11.88;8.15;;;;;;;10.83;55.80;101434.50;6245890;22;20004;-60
2022/03/13 00:28:43;;;;;;;13.98;8.82;;;;;;;10.82;55.78;101433.63;6246086;22;20079;-60
2022/03/13 00:31:08;;;;;;;13.95;8.73;;;;;;;10.82;56.06;101438.91;6245665;22;20306;-60
2022/03/13 00:33:34;;;;;;;12.60;8.50;;;;;;;10.80;56.43;101432.72;6245723;22;20007;-60
2022/03/13 00:35:59;;;;;;;11.98;7.90;;;;;;;10.81;55.97;101434.50;6245519;22;20008;-60
2022/03/13 00:38:28;;;;;;;13.65;8.63;;;;;;;10.78;55.52;101424.72;6245851;22;20007;-60
2022/03/13 00:40:59;;;;;;;15.85;9.27;;;;;;;10.81;56.09;101420.38;6245516;22;20429;-60
2022/03/13 00:43:28;;;;;;;15.43;9.15;;;;;;;10.80;55.61;101414.22;6245856;23;20377;-60
2022/03/13 00:45:54;;;;;;;12.57;8.77;;;;;;;10.77;55.54;101404.47;6245702;22;20015;-60
2022/03/13 00:48:21;;;;;;;15.20;9.30;;;;;;;10.77;55.79;101414.16;6246030;22;20004;-60
2022/03/13 00:50:47;;;;;;;15.70;10.02;;;;;;;10.74;55.85;101404.38;6245841;22;20027;-60
2022/03/13 00:53:13;;;;;;;14.13;9.55;;;;;;;10.72;56.28;101414.06;6245500;22;20004;-60
2022/03/13 00:55:39;;;;;;;14.00;9.30;;;;;;;10.68;56.44;101414.84;6245972;22;20071;-60
2022/03/13 00:58:05;;;;;;;15.07;9.25;;;;;;;10.66;56.47;101410.38;6245647;22;20098;-61
2022/03/13 01:00:30;;;;;;;17.23;10.15;;;;;;;10.64;56.47;101410.38;6246028;22;20012;-60
2022/03/13 01:02:56;;;;;;;15.68;9.57;;;;;;;10.60;56.49;101400.59;6247473;23;20074;-60
2022/03/13 01:05:26;;;;;;;14.85;9.30;;;;;;;10.56;56.42;101397.88;6247417;22;20333;-60
2022/03/13 01:07:54;;;;;;;15.52;9.82;;;;;;;10.54;56.90;101403.13;6247294;22;20031;-60
2022/03/13 01:10:19;;;;;;;13.57;9.07;;;;;;;10.51;57.00;101396.03;6247470;22;20026;-60
2022/03/13 01:12:47;;;;;;;15.15;9.32;;;;;;;10.47;57.04;101388.00;6247229;22;20000;-60
2022/03/13 01:15:13;;;;;;;15.25;8.82;;;;;;;10.43;57.48;101381.78;6247493;22;20075;-60
2022/03/13 01:17:38;;;;;;;12.52;8.63;;;;;;;10.44;57.22;101385.31;6247619;22;20079;-60
2022/03/13 01:20:13;;;;;;;17.02;9.95;;;;;;;10.40;57.35;101386.09;6247430;22;20333;-60
2022/03/13 01:22:38;;;;;;;17.83;9.05;;;;;;;10.38;57.58;101383.44;6245334;22;20122;-60
2022/03/13 01:25:04;;;;;;;14.02;8.85;;;;;;;10.37;57.72;101379.03;6247354;22;20039;-60
2022/03/13 01:27:31;;;;;;;14.63;8.68;;;;;;;10.36;57.79;101373.69;6247233;22;20031;-60
2022/03/13 01:29:58;;;;;;;12.80;8.85;;;;;;;10.36;57.78;101365.75;6247607;22;20372;-60
2022/03/13 01:32:30;;;;;;;13.77;9.20;;;;;;;10.35;57.57;101364.88;6246962;22;20007;-60
2022/03/13 01:34:56;;;;;;;13.25;8.93;;;;;;;10.30;57.81;101361.25;6247287;22;20004;-60
2022/03/13 01:37:40;;;;;;;14.65;8.90;;;;;;;10.30;57.25;101358.63;6246918;22;20007;-60
2022/03/13 01:40:11;;;;;;;13.82;8.95;;;;;;;10.26;57.80;101360.28;6247327;22;20306;-60
2022/03/13 01:42:40;;;;;;;12.48;8.35;;;;;;;10.21;58.27;101361.03;6247220;22;20000;-60
2022/03/13 01:45:10;;;;;;;13.20;8.40;;;;;;;10.19;58.08;101354.81;6247137;22;20034;-60
2022/03/13 01:47:36;;;;;;;14.68;8.52;;;;;;;10.14;58.71;101345.91;6247161;22;20520;-61
2022/03/13 01:50:03;;;;;;;11.88;7.82;;;;;;;10.13;58.51;101342.38;6247391;22;20028;-60
2022/03/13 01:52:29;;;;;;;13.63;7.97;;;;;;;10.11;58.83;101340.59;6247051;22;20011;-60
2022/03/13 01:54:56;;;;;;;11.18;8.02;;;;;;;10.04;59.09;101336.94;6247524;22;20011;-60
2022/03/13 01:57:22;;;;;;;11.80;8.13;;;;;;;9.96;59.61;101341.16;6246947;22;20421;-60
2022/03/13 01:59:52;;;;;;;12.57;7.90;;;;;;;9.87;59.65;101348.88;6247051;22;20165;-60
2022/03/13 02:02:19;;;;;;;15.00;8.02;;;;;;;9.84;59.70;101343.53;6246885;22;20030;-61
2022/03/13 02:04:50;;;;;;;13.70;7.68;;;;;;;9.84;59.56;101332.97;6246837;22;20389;-60
2022/03/13 02:07:16;;;;;;;14.15;7.88;;;;;;;9.83;60.01;101334.72;6246992;22;20000;-60
2022/03/13 02:09:41;;;;;;;12.45;8.30;;;;;;;9.84;60.09;101335.59;6247288;22;20007;-60
2022/03/13 02:12:08;;;;;;;16.45;7.78;;;;;;;9.83;60.19;101337.34;6246580;22;20429;-60
2022/03/13 02:14:34;;;;;;;14.52;8.60;;;;;;;9.75;60.49;101334.53;6246862;22;20036;-60
2022/03/13 02:16:59;;;;;;;14.52;8.63;;;;;;;9.72;60.92;101329.22;6246787;22;20000;-60
2022/03/13 02:19:25;;;;;;;12.20;8.88;;;;;;;9.74;60.78;101323.97;6246817;22;20055;-60
2022/03/13 02:21:52;;;;;;;14.65;8.93;;;;;;;9.71;61.22;101321.25;6244476;22;20051;-60
2022/03/13 02:24:23;;;;;;;15.77;9.15;;;;;;;9.70;60.80;101315.09;6246801;22;20046;-60
2022/03/13 02:27:00;;;;;;;14.57;9.05;;;;;;;9.68;61.13;101310.66;6246730;22;20066;-60
2022/03/13 02:29:28;;;;;;;13.98;9.05;;;;;;;9.66;61.18;101322.91;6246906;22;20000;-60
2022/03/13 02:31:53;;;;;;;18.58;9.57;;;;;;;9.68;60.56;101319.47;6246468;22;20008;-60
2022/03/13 02:34:19;;;;;;;15.60;9.75;;;;;;;9.69;61.24;101325.63;6246571;22;20000;-60
2022/03/13 02:36:54;;;;;;;15.95;10.15;;;;;;;9.66;60.78;101329.06;6246564;22;20026;-60
2022/03/13 02:39:21;;;;;;;15.63;10.13;;;;;;;9.64;61.26;101327.28;6246637;22;20449;-60
2022/03/13 02:41:46;;;;;;;15.05;9.70;;;;;;;9.61;61.08;101333.34;6246500;23;20082;-60
2022/03/13 02:44:14;;;;;;;15.40;9.85;;;;;;;9.61;61.35;101336.00;6246568;22;20409;-60
2022/03/13 02:46:45;;;;;;;15.77;9.90;;;;;;;9.60;61.21;101326.31;6246674;22;20397;-60
2022/03/13 02:49:12;;;;;;;14.75;9.82;;;;;;;9.62;60.58;101321.94;6246578;22;20054;-60
2022/03/13 02:51:38;;;;;;;15.57;9.82;;;;;;;9.64;61.27;101317.59;6246428;22;20353;-60
2022/03/13 02:54:03;;;;;;;15.88;10.15;;;;;;;9.65;60.72;101322.03;6246490;22;20062;-60
2022/03/13 02:56:34;;;;;;;14.65;9.77;;;;;;;9.67;60.70;101320.28;6246465;22;20000;-60
2022/03/13 02:59:00;;;;;;;17.20;11.13;;;;;;;9.63;61.23;101315.81;6246287;22;20000;-60
2022/03/13 03:01:28;;;;;;;18.40;10.70;;;;;;;9.65;60.96;101315.84;6246294;23;20007;-60
2022/03/13 03:03:58;;;;;;;16.63;10.40;;;;;;;9.65;61.03;101311.47;6246477;22;20004;-60
2022/03/13 03:06:27;;;;;;;17.35;10.95;;;;;;;9.62;60.44;101308.75;6246436;22;20322;-60
2022/03/13 03:08:55;;;;;;;16.05;11.10;;;;;;;9.62;61.30;101314.03;6246328;22;20011;-60
2022/03/13 03:11:21;;;;;;;18.15;10.77;;;;;;;9.64;61.02;101308.81;6246188;22;20000;-60
2022/03/13 03:13:47;;;;;;;17.98;10.80;;;;;;;9.67;60.83;101311.47;6244577;23;20004;-60
2022/03/13 03:16:12;;;;;;;17.95;11.43;;;;;;;9.63;60.94;101312.28;6246490;22;20334;-60
2022/03/13 03:18:38;;;;;;;19.27;11.15;;;;;;;9.63;61.18;101309.63;6246632;22;20004;-60
2022/03/13 03:21:03;;;;;;;20.35;11.77;;;;;;;9.63;61.13;101309.63;6246330;22;20430;-60
2022/03/13 03:23:29;;;;;;;21.58;12.18;;;;;;;9.60;61.98;101304.31;6245981;23;20019;-60
2022/03/13 03:25:55;;;;;;;17.15;10.93;;;;;;;9.57;61.67;101301.59;6245988;22;20384;-60
2022/03/13 03:28:30;;;;;;;19.75;11.98;;;;;;;9.53;61.74;101301.53;6246114;22;20007;-60
2022/03/13 03:30:59;;;;;;;17.58;11.57;;;;;;;9.54;61.54;101305.94;6246118;23;20027;-60
2022/03/13 03:33:25;;;;;;;17.17;11.50;;;;;;;9.54;61.80;101300.66;6246361;22;20057;-60
2022/03/13 03:35:50;;;;;;;19.50;12.00;;;;;;;9.54;63.02;101292.75;6246388;22;20071;-60
2022/03/13 03:38:16;;;;;;;20.88;12.40;;;;;;;9.54;62.52;101291.84;6246037;22;20004;-59
2022/03/13 03:40:43;;;;;;;18.58;12.48;;;;;;;9.54;62.30;101299.78;6246370;22;20004;-60
2022/03/13 03:43:08;;;;;;;22.42;12.50;;;;;;;9.53;62.70;101293.59;6246342;22;20087;-60
2022/03/13 03:45:33;;;;;;;19.52;12.05;;;;;;;9.54;62.48;101297.13;6245951;23;20445;-60
2022/03/13 03:47:59;;;;;;;19.60;12.82;;;;;;;9.49;62.69;101290.88;6246356;23;20039;-60
2022/03/13 03:50:25;;;;;;;19.48;12.60;;;;;;;9.49;62.50;101285.59;6246076;22;20007;-60
2022/03/13 03:52:54;;;;;;;17.85;12.52;;;;;;;9.50;62.35;101292.66;6246178;22;20000;-60
2022/03/13 03:55:24;;;;;;;19.75;13.13;;;;;;;9.49;61.99;101296.16;6246194;22;20031;-60
2022/03/13 03:57:50;;;;;;;23.08;12.18;;;;;;;9.49;62.11;101299.66;6245766;22;20012;-60
2022/03/13 04:00:23;;;;;;;19.40;12.88;;;;;;;9.48;62.37;101305.81;6245963;22;20004;-60
2022/03/13 04:02:49;;;;;;;18.75;12.43;;;;;;;9.42;62.54;101296.84;6245991;23;20008;-60
2022/03/13 04:05:14;;;;;;;20.63;13.05;;;;;;;9.40;62.04;101293.31;6245864;23;20350;-60
2022/03/13 04:07:39;;;;;;;20.75;11.88;;;;;;;9.41;62.19;101285.41;6245796;23;20318;-60
2022/03/13 04:10:07;;;;;;;20.35;13.38;;;;;;;9.42;62.36;101291.56;6245903;23;20028;-60
2022/03/13 04:12:34;;;;;;;24.58;13.90;;;;;;;9.43;62.13;101298.66;6245729;22;20489;-60
2022/03/13 04:15:01;;;;;;;28.05;14.68;;;;;;;9.41;62.16;101285.41;6245938;22;20004;-60
2022/03/13 04:17:27;;;;;;;26.63;14.88;;;;;;;9.42;62.24;101287.22;6246200;22;20004;-60
2022/03/13 04:19:53;;;;;;;26.75;14.77;;;;;;;9.45;62.52;101291.66;6245902;23;20075;-60
2022/03/13 04:22:18;;;;;;;24.20;14.25;;;;;;;9.42;62.80;101278.38;6243866;23;20098;-60
2022/03/13 04:24:43;;;;;;;28.08;14.13;;;;;;;9.42;62.66;101278.38;6245854;22;20004;-60
2022/03/13 04:27:09;;;;;;;25.48;13.88;;;;;;;9.45;62.62;101287.28;6245827;22;20335;-62
2022/03/13 04:29:36;;;;;;;21.35;13.27;;;;;;;9.47;62.44;101284.69;6245786;22;20503;-60
2022/03/13 04:32:05;;;;;;;20.55;13.32;;;;;;;9.46;61.85;101283.81;6245780;22;20360;-60
2022/03/13 04:34:32;;;;;;;21.02;13.82;;;;;;;9.41;61.39;101280.13;6245812;22;20015;-60
2022/03/13 04:37:00;;;;;;;22.02;13.20;;;;;;;9.37;60.75;101277.41;6247179;22;20004;-60
2022/03/13 04:39:27;;;;;;;20.80;13.27;;;;;;;9.36;61.75;101288.81;6246302;23;20079;-60
2022/03/13 04:41:52;;;;;;;23.45;14.07;;;;;;;9.33;60.97;101286.97;6247531;22;20004;-60
2022/03/13 04:44:19;;;;;;;21.35;13.05;;;;;;;9.33;61.59;101286.97;6247924;23;20010;-60
2022/03/13 04:46:44;;;;;;;21.10;13.30;;;;;;;9.31;61.82;101291.34;6248027;22;20008;-60
2022/03/13 04:49:15;;;;;;;24.65;13.35;;;;;;;9.30;62.01;101291.31;6247781;23;20035;-60
2022/03/13 04:51:40;;;;;;;20.10;13.25;;;;;;;9.28;61.80;101297.44;6247615;23;20012;-60
2022/03/13 04:54:08;;;;;;;22.02;12.85;;;;;;;9.26;62.32;101299.16;6247753;22;20011;-60
2022/03/13 04:56:34;;;;;;;22.40;13.73;;;;;;;9.25;63.00;101294.75;6247425;22;20499;-61
2022/03/13 04:59:06;;;;;;;21.45;13.05;;;;;;;9.22;63.59;101294.66;6247837;22;20012;-60
2022/03/13 05:01:31;;;;;;;22.98;13.23;;;;;;;9.16;63.28;101294.50;6247579;22;20008;-59
2022/03/13 05:03:57;;;;;;;20.50;12.70;;;;;;;9.12;63.14;101290.03;6247843;22;20023;-60
2022/03/13 05:06:22;;;;;;;23.30;14.32;;;;;;;9.05;65.05;101288.09;6247242;22;20011;-60
2022/03/13 05:08:49;;;;;;;22.00;13.27;;;;;;;9.04;64.06;101291.59;6247820;23;20095;-60
2022/03/13 05:11:15;;;;;;;22.20;13.38;;;;;;;9.00;64.16;101277.47;6247445;23;20004;-60
2022/03/13 05:13:41;;;;;;;21.38;14.07;;;;;;;8.95;65.02;101279.09;6247767;22;20004;-60
2022/03/13 05:16:06;;;;;;;21.60;12.77;;;;;;;8.97;64.55;101281.75;6247483;22;20490;-60
2022/03/13 05:18:34;;;;;;;20.55;13.00;;;;;;;8.96;64.33;101274.72;6247383;23;20011;-60
2022/03/13 05:21:00;;;;;;;22.48;13.18;;;;;;;8.98;65.28;101278.25;6247373;22;20050;-60
2022/03/13 05:23:25;;;;;;;19.67;13.10;;;;;;;8.94;65.98;101273.75;6247233;23;20008;-60
2022/03/13 05:25:50;;;;;;;20.48;13.85;;;;;;;8.89;65.73;101275.41;6247142;23;20331;-59
2022/03/13 05:28:16;;;;;;;23.08;13.43;;;;;;;8.84;65.16;101275.28;6247164;22;20000;-60
2022/03/13 05:30:46;;;;;;;19.48;12.65;;;;;;;8.80;65.86;101273.44;6247243;23;20007;-60
2022/03/13 05:33:12;;;;;;;20.15;13.30;;;;;;;8.74;65.23;101270.66;6245847;23;20426;-60
2022/03/13 05:35:38;;;;;;;19.33;13.15;;;;;;;8.68;64.96;101274.00;6247218;22;20008;-60
2022/03/13 05:38:04;;;;;;;19.27;13.10;;;;;;;8.64;65.08;101271.25;6247360;22;20035;-60
2022/03/13 05:40:29;;;;;;;21.48;13.52;;;;;;;8.64;64.78;101277.41;6245622;23;20016;-60
2022/03/13 05:42:57;;;;;;;22.73;13.70;;;;;;;8.62;64.26;101280.88;6247570;22;20005;-59
2022/03/13 05:45:25;;;;;;;21.35;13.13;;;;;;;8.61;64.17;101284.34;6247011;22;20504;-60
2022/03/13 05:47:53;;;;;;;21.33;12.77;;;;;;;8.59;64.54;101276.41;6246851;22;20032;-60
2022/03/13 05:50:20;;;;;;;18.90;12.80;;;;;;;8.61;63.63;101287.91;6247154;22;20326;-60
2022/03/13 05:52:49;;;;;;;20.83;13.00;;;;;;;8.63;63.99;101285.28;6247161;22;20040;-60
2022/03/13 05:55:20;;;;;;;23.42;12.50;;;;;;;8.64;63.59;101281.81;6247027;22;20008;-59
2022/03/13 05:57:46;;;;;;;27.20;12.93;;;;;;;8.66;62.59;101290.66;6246950;22;20433;-60
2022/03/13 06:00:14;;;;;;;23.23;13.25;;;;;;;8.57;63.16;101293.06;6247287;22;20008;-60
2022/03/13 06:02:40;;;;;;;19.23;12.90;;;;;;;8.56;63.75;101289.50;6246884;22;20004;-60
2022/03/13 06:05:10;;;;;;;20.63;12.23;;;;;;;8.51;63.10;101293.75;6246912;22;20451;-59
2022/03/13 06:07:36;;;;;;;18.42;12.60;;;;;;;8.48;63.59;101285.81;6246921;22;20004;-60
2022/03/13 06:10:04;;;;;;;19.52;12.55;;;;;;;8.50;63.39;101289.34;6246964;22;20000;-60
2022/03/13 06:12:31;;;;;;;18.70;11.77;;;;;;;8.50;62.92;101284.97;6247016;23;20000;-61
2022/03/13 06:14:58;;;;;;;22.48;12.02;;;;;;;8.49;62.45;101285.84;6246841;22;20083;-60
2022/03/13 06:17:24;;;;;;;19.15;12.23;;;;;;;8.47;63.27;101284.88;6246742;22;20008;-60
2022/03/13 06:19:50;;;;;;;18.85;12.23;;;;;;;8.51;62.65;101291.13;6247200;22;20007;-60
2022/03/13 06:22:18;;;;;;;19.35;11.95;;;;;;;8.54;62.34;101285.94;6244764;22;20346;-60
2022/03/13 06:24:43;;;;;;;19.50;11.93;;;;;;;8.58;62.28;101286.94;6246795;22;20504;-60
2022/03/13 06:27:10;;;;;;;20.10;11.93;;;;;;;8.61;62.31;101290.53;6246792;22;20083;-60
2022/03/13 06:29:37;;;;;;;20.23;12.07;;;;;;;8.64;62.03;101297.59;6246744;22;20000;-60
2022/03/13 06:32:03;;;;;;;21.92;12.80;;;;;;;8.58;62.52;101290.44;6246619;22;20008;-59
2022/03/13 06:34:29;;;;;;;20.38;12.18;;;;;;;8.58;62.88;101294.81;6245167;23;20008;-60
2022/03/13 06:36:54;;;;;;;17.10;11.35;;;;;;;8.56;62.26;101289.50;6246615;23;20004;-60
2022/03/13 06:39:19;;;;;;;17.75;11.52;;;;;;;8.59;62.61;101293.97;6246667;23;20010;-60
2022/03/13 06:41:45;;;;;;;19.45;11.90;;;;;;;8.60;62.39;101287.84;6246387;23;20078;-60
2022/03/13 06:44:10;;;;;;;21.73;12.32;;;;;;;8.62;61.72;101291.41;6246475;22;20000;-60
2022/03/13 06:46:36;;;;;;;22.17;12.05;;;;;;;8.60;62.34;101290.47;6246663;22;20000;-60
2022/03/13 06:49:05;;;;;;;17.98;11.45;;;;;;;8.60;61.53;101290.47;6246874;23;20074;-60
2022/03/13 06:51:31;;;;;;;17.90;11.88;;;;;;;8.63;61.09;101291.44;6246670;22;20005;-60
2022/03/13 06:53:56;;;;;;;17.45;11.88;;;;;;;8.66;61.75;101283.63;6246475;22;20492;-60
2022/03/13 06:56:22;;;;;;;16.27;11.32;;;;;;;8.69;61.50;101293.34;6246339;22;20007;-60
2022/03/13 06:58:47;;;;;;;18.88;11.68;;;;;;;8.71;61.71;101297.81;6246201;22;20011;-60
2022/03/13 07:01:12;;;;;;;20.40;12.27;;;;;;;8.74;61.27;101299.66;6244755;23;20075;-60
2022/03/13 07:03:39;;;;;;;18.85;11.60;;;;;;;8.74;60.83;101299.66;6246344;22;20081;-60
2022/03/13 07:06:05;;;;;;;20.00;11.98;;;;;;;8.78;61.30;101289.22;6246502;22;20008;-60
2022/03/13 07:08:34;;;;;;;21.40;12.27;;;;;;;8.81;61.18;101292.75;6246636;22;20050;-61
2022/03/13 07:11:10;;;;;;;17.50;11.75;;;;;;;8.82;61.93;101290.16;6246291;22;20028;-60
2022/03/13 07:13:36;;;;;;;22.70;12.70;;;;;;;8.87;61.55;101290.31;6246318;22;20007;-60
2022/03/13 07:16:03;;;;;;;25.05;13.20;;;;;;;8.93;60.86;101293.06;6246574;22;20004;-60
2022/03/13 07:18:31;;;;;;;26.27;13.10;;;;;;;8.97;60.95;101290.56;6246361;22;20113;-59
2022/03/13 07:20:57;;;;;;;20.58;12.32;;;;;;;9.00;60.49;101289.75;6246225;22;20005;-60
2022/03/13 07:23:23;;;;;;;19.67;12.18;;;;;;;9.01;61.27;101297.69;6245908;22;20456;-59
2022/03/13 07:25:55;;;;;;;19.33;12.57;;;;;;;9.03;60.63;101289.78;6246083;22;20465;-60
2022/03/13 07:28:20;;;;;;;23.42;12.90;;;;;;;9.05;61.58;101296.00;6246390;22;20325;-59
2022/03/13 07:30:46;;;;;;;21.63;13.15;;;;;;;9.07;60.64;101298.69;6246122;23;20000;-60
2022/03/13 07:33:11;;;;;;;22.65;12.95;;;;;;;9.08;61.43;101287.28;6245988;23;20004;-60
2022/03/13 07:35:40;;;;;;;24.60;12.68;;;;;;;9.11;62.04;101279.44;6246175;22;20444;-59
2022/03/13 07:38:05;;;;;;;21.05;12.57;;;;;;;9.13;62.60;101290.94;6246138;22;20053;-60
2022/03/13 07:40:46;;;;;;;19.67;12.77;;;;;;;9.12;61.68;101286.50;6246231;23;20007;-60
2022/03/13 07:43:12;;;;;;;19.80;12.25;;;;;;;9.12;61.85;101289.13;6246025;23;20004;-60
2022/03/13 07:45:37;;;;;;;21.42;12.65;;;;;;;9.13;62.37;101283.03;6244869;23;20061;-60
2022/03/13 07:48:03;;;;;;;19.08;12.32;;;;;;;9.15;62.01;101283.94;6246416;22;20345;-60
2022/03/13 07:50:30;;;;;;;20.00;12.77;;;;;;;9.14;63.23;101283.03;6245892;23;20004;-60
2022/03/13 07:52:56;;;;;;;19.25;11.98;;;;;;;9.19;61.46;101281.41;6245956;22;20075;-59
2022/03/13 07:55:22;;;;;;;23.30;12.48;;;;;;;9.22;61.98;101283.22;6246089;22;20034;-59
2022/03/13 07:57:48;;;;;;;18.35;12.23;;;;;;;9.25;61.78;101278.94;6245972;22;20071;-59
2022/03/13 08:00:18;;;;;;;20.55;12.05;;;;;;;9.26;61.75;101290.34;6245933;22;20004;-59
2022/03/13 08:02:47;;;;;;;19.98;11.90;;;;;;;9.27;61.28;101286.84;6245826;22;20015;-59
2022/03/13 08:05:16;;;;;;;18.77;12.32;;;;;;;9.27;60.88;101282.47;6245788;22;20028;-59
2022/03/13 08:07:41;;;;;;;20.23;11.90;;;;;;;9.31;60.90;101275.53;6245943;22;20012;-60
2022/03/13 08:10:09;;;;;;;19.38;13.10;;;;;;;9.34;60.36;101290.53;6243773;23;20652;-60
2022/03/13 08:12:34;;;;;;;24.85;12.80;;;;;;;9.38;60.08;101289.72;6245691;22;20000;-59
2022/03/13 08:15:00;;;;;;;17.95;12.35;;;;;;;9.40;60.30;101274.84;6244297;23;20050;-59
2022/03/13 08:17:25;;;;;;;23.60;12.60;;;;;;;9.45;59.56;101283.75;6245721;22;20382;-59
2022/03/13 08:19:56;;;;;;;18.52;11.82;;;;;;;9.49;59.41;101275.94;6245601;22;20008;-59
2022/03/13 08:22:22;;;;;;;18.50;12.13;;;;;;;9.54;59.09;101279.56;6245287;23;20318;-59
2022/03/13 08:24:47;;;;;;;19.20;11.18;;;;;;;9.62;58.73;101282.38;6245600;22;20066;-59
2022/03/13 08:27:13;;;;;;;18.60;11.68;;;;;;;9.67;59.26;101285.97;6245633;23;20000;-59
2022/03/13 08:29:39;;;;;;;22.27;11.98;;;;;;;9.74;58.90;101272.06;6244290;23;20353;-59
2022/03/13 08:32:05;;;;;;;20.52;12.25;;;;;;;9.77;59.27;101277.44;6245820;22;20326;-59
2022/03/13 08:34:33;;;;;;;17.80;11.65;;;;;;;9.83;58.80;101278.41;6244032;23;20015;-60
2022/03/13 08:36:59;;;;;;;21.95;12.77;;;;;;;9.90;57.69;101280.31;6245779;22;20030;-59
2022/03/13 08:39:30;;;;;;;21.80;12.95;;;;;;;9.97;57.99;101282.19;6245507;23;20481;-59
2022/03/13 08:41:55;;;;;;;22.30;13.23;;;;;;;10.04;57.85;101285.00;6245886;22;20071;-59
2022/03/13 08:44:21;;;;;;;24.27;13.00;;;;;;;10.15;58.00;101285.22;6245659;23;20039;-59
2022/03/13 08:46:47;;;;;;;22.35;12.90;;;;;;;10.22;56.51;101291.50;6245574;22;20000;-59
2022/03/13 08:49:12;;;;;;;23.77;14.05;;;;;;;10.28;56.59;101289.03;6245257;22;20004;-59
2022/03/13 08:51:38;;;;;;;21.92;13.18;;;;;;;10.39;56.88;101298.03;6245559;22;20000;-59
2022/03/13 08:54:04;;;;;;;23.83;13.68;;;;;;;10.53;56.26;101280.69;6245352;22;20000;-59
2022/03/13 08:56:35;;;;;;;22.90;13.52;;;;;;;10.69;55.56;101276.56;6245864;22;20008;-59
2022/03/13 08:59:02;;;;;;;20.02;12.23;;;;;;;10.81;53.44;101277.63;6245700;22;20004;-59
2022/03/13 09:01:28;;;;;;;22.58;12.98;;;;;;;10.93;53.82;101267.25;6245506;22;20007;-59
2022/03/13 09:03:53;;;;;;;19.80;13.23;;;;;;;11.20;54.38;101269.44;6245992;22;20004;-60
2022/03/13 09:06:19;;;;;;;20.17;12.68;;;;;;;11.50;52.71;101269.88;6245856;22;20083;-59
2022/03/13 09:08:50;;;;;;;22.67;12.65;;;;;;;11.79;51.27;101266.72;6245802;23;20007;-59
2022/03/13 09:11:15;;;;;;;22.83;13.63;;;;;;;12.10;52.04;101257.41;6245531;22;20086;-59
2022/03/13 09:13:41;;;;;;;19.70;12.68;;;;;;;12.41;50.63;101263.03;6245485;22;20023;-59
2022/03/13 09:16:06;;;;;;;21.90;14.02;;;;;;;12.60;50.13;101264.09;6245775;23;20413;-60
2022/03/13 09:18:32;;;;;;;20.13;12.80;;;;;;;12.81;48.66;101260.75;6245731;23;20035;-59
2022/03/13 09:20:58;;;;;;;21.77;12.45;;;;;;;12.98;49.08;101257.34;6243675;23;20371;-59
2022/03/13 09:23:31;;;;;;;20.30;11.60;;;;;;;13.17;47.41;101260.13;6246533;22;20023;-60
2022/03/13 09:25:56;;;;;;;20.25;13.23;;;;;;;13.30;47.88;101261.13;6245471;23;20062;-59
2022/03/13 09:28:25;;;;;;;20.30;12.77;;;;;;;13.49;47.07;101250.63;6247274;23;20004;-59
2022/03/13 09:31:10;;;;;;;20.95;12.82;;;;;;;13.65;48.29;101256.88;6247196;22;20050;-59
2022/03/13 09:33:39;;;;;;;23.27;13.18;;;;;;;13.78;47.10;101249.88;6247621;22;20087;-59
2022/03/13 09:36:05;;;;;;;21.92;13.65;;;;;;;13.80;46.27;101252.53;6246925;23;20434;-60
2022/03/13 09:38:30;;;;;;;19.58;13.52;;;;;;;13.93;46.02;101252.59;6247155;22;20004;-59
2022/03/13 09:40:56;;;;;;;18.67;12.00;;;;;;;14.15;45.06;101257.97;6247148;22;20058;-60
2022/03/13 09:43:22;;;;;;;21.75;13.32;;;;;;;14.31;45.08;101257.13;6247125;22;20024;-59
2022/03/13 09:45:49;;;;;;;19.50;12.73;;;;;;;14.48;45.76;101250.09;6247091;22;20010;-59
2022/03/13 09:48:17;;;;;;;19.17;12.07;;;;;;;14.68;44.04;101265.16;6247306;22;20030;-59
2022/03/13 09:50:43;;;;;;;19.83;12.25;;;;;;;14.74;44.67;101260.75;6247347;23;20071;-60
2022/03/13 09:53:08;;;;;;;17.23;11.70;;;;;;;14.83;44.30;101262.53;6247081;22;20028;-60
2022/03/13 09:55:34;;;;;;;20.20;12.55;;;;;;;14.89;43.75;101258.97;6246838;23;20042;-59
2022/03/13 09:57:59;;;;;;;19.98;11.73;;;;;;;15.10;44.30;101253.63;6246911;23;20030;-59
2022/03/13 10:00:26;;;;;;;18.60;12.18;;;;;;;15.25;43.17;101274.03;6246814;23;20035;-59
2022/03/13 10:02:55;;;;;;;16.30;11.23;;;;;;;15.37;42.56;101268.66;6247203;22;20004;-59
2022/03/13 10:05:23;;;;;;;18.20;12.75;;;;;;;15.50;42.57;101264.19;6246571;22;20000;-59
2022/03/13 10:07:48;;;;;;;18.95;12.15;;;;;;;15.45;41.76;101253.56;6247112;22;20035;-60
2022/03/13 10:10:14;;;;;;;17.60;12.07;;;;;;;15.53;41.95;101245.53;6246866;23;20000;-59
2022/03/13 10:12:46;;;;;;;25.15;12.52;;;;;;;15.58;42.74;101246.41;6246740;22;20008;-59
2022/03/13 10:15:13;;;;;;;17.23;12.00;;;;;;;15.62;42.20;101252.63;6246897;23;20310;-59
2022/03/13 10:17:40;;;;;;;17.83;11.18;;;;;;;15.71;42.04;101249.94;6246273;22;20004;-60
2022/03/13 10:20:27;;;;;;;20.00;12.60;;;;;;;15.83;42.40;101238.38;6244296;23;20007;-60
2022/03/13 10:23:02;;;;;;;18.08;11.85;;;;;;;15.98;41.87;101230.31;6245009;22;20012;-61
2022/03/13 10:25:35;;;;;;;20.40;11.07;;;;;;;16.08;41.64;101224.00;6245801;23;20545;-60
2022/03/13 10:28:31;;;;;;;17.67;12.20;;;;;;;16.20;42.03;101229.28;6244375;23;20491;-60
2022/03/13 10:30:59;;;;;;;19.40;12.05;;;;;;;16.24;41.23;101217.69;6246180;22;20417;-60
2022/03/13 10:33:29;;;;;;;19.60;11.18;;;;;;;16.35;40.98;101220.28;6245400;22;20007;-60
2022/03/13 10:36:16;;;;;;;15.48;10.68;;;;;;;16.44;41.05;101222.00;6246103;22;20008;-60
2022/03/13 10:38:45;;;;;;;26.17;11.60;;;;;;;16.29;40.97;101225.66;6246067;23;20008;-60
2022/03/13 10:41:13;;;;;;;27.45;10.70;;;;;;;16.34;41.03;101215.84;6246423;22;20000;-60
2022/03/13 10:44:02;;;;;;;15.70;10.35;;;;;;;16.43;41.03;101209.56;6244763;23;20020;-60
2022/03/13 10:46:29;;;;;;;13.55;10.38;;;;;;;16.65;41.82;101219.16;6246261;22;20054;-60
2022/03/13 10:48:56;;;;;;;15.13;10.40;;;;;;;16.67;40.75;101206.69;6246117;22;20437;-61
2022/03/13 10:51:40;;;;;;;15.38;11.02;;;;;;;16.74;40.12;101208.47;6246494;22;20078;-61
2022/03/13 10:54:46;;;;;;;15.30;10.35;;;;;;;16.97;40.10;101199.34;6246106;22;20004;-60
2022/03/13 10:57:11;;;;;;;13.70;10.15;;;;;;;17.22;39.71;101199.97;6124214;23;20092;-60
2022/03/13 10:59:44;;;;;;;15.57;9.60;;;;;;;17.34;39.10;101207.84;6123935;23;20048;-61
2022/03/13 11:02:23;;;;;;;14.63;10.05;;;;;;;17.63;38.35;101199.47;6123555;23;20092;-60
2022/03/13 11:04:57;;;;;;;14.10;9.50;;;;;;;17.82;38.33;101202.84;6123685;23;20014;-60
2022/03/13 11:07:24;;;;;;;14.38;9.77;;;;;;;17.87;38.05;101194.75;6098740;23;20006;-60
2022/03/13 11:09:51;;;;;;;14.77;9.48;;;;;;;17.74;37.02;101189.56;6122646;23;20014;-58
2022/03/13 11:12:20;;;;;;;13.35;9.65;;;;;;;17.69;37.21;101195.84;6123594;23;20010;-59
2022/03/13 11:14:52;;;;;;;16.33;10.13;;;;;;;17.64;37.49;101189.66;6122581;23;20009;-59
2022/03/13 11:17:36;;;;;;;16.05;9.80;;;;;;;17.73;38.45;101193.13;6124017;23;20088;-59
2022/03/13 11:20:04;;;;;;;13.07;9.55;;;;;;;17.82;37.60;101193.94;6124032;23;20076;-60